sensor_id;sensor_type;location;lat;lon;timestamp;P1;durP1;ratioP1;P2;durP2;ratioP2
75971;SDS011;64651;47.540;19.088;2023-03-13T00:01:46;14.37;;;6.23;;
75971;SDS011;64651;47.540;19.088;2023-03-13T00:06:50;16.35;;;6.18;;
75971;SDS011;64651;47.540;19.088;2023-03-13T00:11:52;14.55;;;5.55;;
75971;SDS011;64651;47.540;19.088;2023-03-13T00:16:54;14.02;;;5.70;;
75971;SDS011;64651;47.540;19.088;2023-03-13T00:21:56;15.10;;;5.47;;
75971;SDS011;64651;47.540;19.088;2023-03-13T00:26:58;12.70;;;5.00;;
75971;SDS011;64651;47.540;19.088;2023-03-13T00:32:04;12.15;;;5.50;;
75971;SDS011;64651;47.540;19.088;2023-03-13T00:37:06;13.25;;;5.07;;
75971;SDS011;64651;47.540;19.088;2023-03-13T00:42:08;15.45;;;5.70;;
75971;SDS011;64651;47.540;19.088;2023-03-13T00:47:11;14.65;;;5.35;;
75971;SDS011;64651;47.540;19.088;2023-03-13T00:52:13;12.73;;;5.30;;
75971;SDS011;64651;47.540;19.088;2023-03-13T00:57:15;11.57;;;4.35;;
75971;SDS011;64651;47.540;19.088;2023-03-13T01:02:17;13.15;;;5.37;;
75971;SDS011;64651;47.540;19.088;2023-03-13T01:07:20;15.10;;;4.68;;
75971;SDS011;64651;47.540;19.088;2023-03-13T01:12:22;13.98;;;5.40;;
75971;SDS011;64651;47.540;19.088;2023-03-13T01:17:24;13.83;;;5.80;;
75971;SDS011;64651;47.540;19.088;2023-03-13T01:22:26;15.38;;;5.60;;
75971;SDS011;64651;47.540;19.088;2023-03-13T01:27:28;13.40;;;4.87;;
75971;SDS011;64651;47.540;19.088;2023-03-13T01:32:34;11.60;;;4.15;;
75971;SDS011;64651;47.540;19.088;2023-03-13T01:37:36;13.25;;;5.55;;
75971;SDS011;64651;47.540;19.088;2023-03-13T01:48:50;13.85;;;5.62;;
75971;SDS011;64651;47.540;19.088;2023-03-13T01:59:18;12.25;;;4.82;;
75971;SDS011;64651;47.540;19.088;2023-03-13T02:04:29;14.18;;;5.35;;
75971;SDS011;64651;47.540;19.088;2023-03-13T02:09:35;14.40;;;5.60;;
75971;SDS011;64651;47.540;19.088;2023-03-13T02:14:43;13.40;;;5.40;;
75971;SDS011;64651;47.540;19.088;2023-03-13T02:19:48;12.63;;;5.37;;
75971;SDS011;64651;47.540;19.088;2023-03-13T02:25:03;13.77;;;5.62;;
75971;SDS011;64651;47.540;19.088;2023-03-13T02:30:26;13.38;;;5.47;;
75971;SDS011;64651;47.540;19.088;2023-03-13T02:35:29;13.03;;;5.60;;
75971;SDS011;64651;47.540;19.088;2023-03-13T02:40:34;12.32;;;5.30;;
75971;SDS011;64651;47.540;19.088;2023-03-13T02:45:38;11.63;;;5.07;;
75971;SDS011;64651;47.540;19.088;2023-03-13T02:50:40;12.98;;;5.20;;
75971;SDS011;64651;47.540;19.088;2023-03-13T02:55:43;12.55;;;5.40;;
75971;SDS011;64651;47.540;19.088;2023-03-13T03:00:45;13.77;;;5.77;;
75971;SDS011;64651;47.540;19.088;2023-03-13T03:05:47;13.52;;;5.72;;
75971;SDS011;64651;47.540;19.088;2023-03-13T03:10:49;12.45;;;5.05;;
75971;SDS011;64651;47.540;19.088;2023-03-13T03:15:51;12.77;;;5.35;;
75971;SDS011;64651;47.540;19.088;2023-03-13T03:20:54;12.00;;;4.43;;
75971;SDS011;64651;47.540;19.088;2023-03-13T03:25:56;11.80;;;4.37;;
75971;SDS011;64651;47.540;19.088;2023-03-13T03:31:05;13.73;;;5.10;;
75971;SDS011;64651;47.540;19.088;2023-03-13T03:36:09;12.37;;;5.40;;
75971;SDS011;64651;47.540;19.088;2023-03-13T03:41:14;11.15;;;4.80;;
75971;SDS011;64651;47.540;19.088;2023-03-13T03:46:17;13.93;;;4.82;;
75971;SDS011;64651;47.540;19.088;2023-03-13T03:51:20;12.97;;;4.90;;
75971;SDS011;64651;47.540;19.088;2023-03-13T03:56:23;11.35;;;4.50;;
75971;SDS011;64651;47.540;19.088;2023-03-13T04:01:27;12.27;;;5.15;;
75971;SDS011;64651;47.540;19.088;2023-03-13T04:06:32;12.25;;;4.07;;
75971;SDS011;64651;47.540;19.088;2023-03-13T04:11:35;12.68;;;5.03;;
75971;SDS011;64651;47.540;19.088;2023-03-13T04:16:37;12.13;;;4.77;;
75971;SDS011;64651;47.540;19.088;2023-03-13T04:21:39;13.68;;;4.97;;
75971;SDS011;64651;47.540;19.088;2023-03-13T04:26:41;12.07;;;4.75;;
75971;SDS011;64651;47.540;19.088;2023-03-13T04:31:46;13.40;;;5.18;;
75971;SDS011;64651;47.540;19.088;2023-03-13T04:36:48;13.85;;;5.55;;
75971;SDS011;64651;47.540;19.088;2023-03-13T04:41:51;13.27;;;5.77;;
75971;SDS011;64651;47.540;19.088;2023-03-13T04:46:54;13.00;;;5.43;;
75971;SDS011;64651;47.540;19.088;2023-03-13T04:51:56;14.40;;;5.82;;
75971;SDS011;64651;47.540;19.088;2023-03-13T04:56:58;13.90;;;6.15;;
75971;SDS011;64651;47.540;19.088;2023-03-13T05:02:00;15.90;;;6.30;;
75971;SDS011;64651;47.540;19.088;2023-03-13T05:07:02;15.80;;;5.93;;
75971;SDS011;64651;47.540;19.088;2023-03-13T05:12:05;12.82;;;5.05;;
75971;SDS011;64651;47.540;19.088;2023-03-13T05:17:07;14.73;;;5.53;;
75971;SDS011;64651;47.540;19.088;2023-03-13T05:22:13;14.00;;;6.10;;
75971;SDS011;64651;47.540;19.088;2023-03-13T05:27:15;13.57;;;5.90;;
75971;SDS011;64651;47.540;19.088;2023-03-13T05:32:17;14.33;;;5.80;;
75971;SDS011;64651;47.540;19.088;2023-03-13T05:37:19;16.98;;;6.78;;
75971;SDS011;64651;47.540;19.088;2023-03-13T05:42:22;16.77;;;6.30;;
75971;SDS011;64651;47.540;19.088;2023-03-13T05:47:24;15.07;;;6.97;;
75971;SDS011;64651;47.540;19.088;2023-03-13T05:52:26;15.63;;;6.35;;
75971;SDS011;64651;47.540;19.088;2023-03-13T05:57:29;17.90;;;7.30;;
75971;SDS011;64651;47.540;19.088;2023-03-13T06:02:31;16.52;;;7.37;;
75971;SDS011;64651;47.540;19.088;2023-03-13T06:07:33;17.30;;;7.25;;
75971;SDS011;64651;47.540;19.088;2023-03-13T06:12:36;19.00;;;7.95;;
75971;SDS011;64651;47.540;19.088;2023-03-13T06:17:39;17.02;;;7.40;;
75971;SDS011;64651;47.540;19.088;2023-03-13T06:22:44;15.97;;;7.07;;
75971;SDS011;64651;47.540;19.088;2023-03-13T06:27:46;16.25;;;8.02;;
75971;SDS011;64651;47.540;19.088;2023-03-13T06:32:49;17.37;;;7.00;;
75971;SDS011;64651;47.540;19.088;2023-03-13T06:37:51;15.52;;;7.07;;
75971;SDS011;64651;47.540;19.088;2023-03-13T06:42:54;16.77;;;7.25;;
75971;SDS011;64651;47.540;19.088;2023-03-13T06:47:57;19.07;;;7.20;;
75971;SDS011;64651;47.540;19.088;2023-03-13T06:52:59;15.40;;;7.00;;
75971;SDS011;64651;47.540;19.088;2023-03-13T06:58:01;17.00;;;7.07;;
75971;SDS011;64651;47.540;19.088;2023-03-13T07:03:03;14.15;;;6.00;;
75971;SDS011;64651;47.540;19.088;2023-03-13T07:08:05;16.90;;;6.78;;
75971;SDS011;64651;47.540;19.088;2023-03-13T07:13:08;16.00;;;7.50;;
75971;SDS011;64651;47.540;19.088;2023-03-13T07:18:10;15.82;;;7.00;;
75971;SDS011;64651;47.540;19.088;2023-03-13T07:23:12;15.10;;;5.65;;
75971;SDS011;64651;47.540;19.088;2023-03-13T07:28:14;14.93;;;6.25;;
75971;SDS011;64651;47.540;19.088;2023-03-13T07:33:17;17.00;;;6.05;;
75971;SDS011;64651;47.540;19.088;2023-03-13T07:38:20;16.10;;;5.83;;
75971;SDS011;64651;47.540;19.088;2023-03-13T07:43:22;14.95;;;5.87;;
75971;SDS011;64651;47.540;19.088;2023-03-13T07:48:32;15.85;;;6.25;;
75971;SDS011;64651;47.540;19.088;2023-03-13T07:53:36;13.95;;;5.50;;
75971;SDS011;64651;47.540;19.088;2023-03-13T07:58:39;16.30;;;6.45;;
75971;SDS011;64651;47.540;19.088;2023-03-13T08:03:42;16.73;;;6.53;;
75971;SDS011;64651;47.540;19.088;2023-03-13T08:08:46;16.33;;;6.57;;
75971;SDS011;64651;47.540;19.088;2023-03-13T08:13:48;16.33;;;6.22;;
75971;SDS011;64651;47.540;19.088;2023-03-13T08:18:52;12.77;;;4.80;;
75971;SDS011;64651;47.540;19.088;2023-03-13T08:23:56;16.60;;;6.32;;
75971;SDS011;64651;47.540;19.088;2023-03-13T08:29:02;11.97;;;5.30;;
75971;SDS011;64651;47.540;19.088;2023-03-13T08:34:10;15.25;;;5.25;;
75971;SDS011;64651;47.540;19.088;2023-03-13T08:39:14;13.05;;;5.53;;
75971;SDS011;64651;47.540;19.088;2023-03-13T08:44:18;14.25;;;6.15;;
75971;SDS011;64651;47.540;19.088;2023-03-13T08:49:23;13.62;;;6.60;;
75971;SDS011;64651;47.540;19.088;2023-03-13T08:54:25;15.33;;;7.30;;
75971;SDS011;64651;47.540;19.088;2023-03-13T08:59:28;15.68;;;7.25;;
75971;SDS011;64651;47.540;19.088;2023-03-13T09:04:30;13.82;;;7.22;;
75971;SDS011;64651;47.540;19.088;2023-03-13T09:09:32;14.27;;;7.80;;
75971;SDS011;64651;47.540;19.088;2023-03-13T09:14:34;14.32;;;6.85;;
75971;SDS011;64651;47.540;19.088;2023-03-13T09:19:37;32.77;;;7.97;;
75971;SDS011;64651;47.540;19.088;2023-03-13T09:24:54;14.55;;;7.35;;
75971;SDS011;64651;47.540;19.088;2023-03-13T09:29:56;14.98;;;7.22;;
75971;SDS011;64651;47.540;19.088;2023-03-13T09:34:59;14.63;;;7.13;;
75971;SDS011;64651;47.540;19.088;2023-03-13T09:40:01;15.10;;;7.80;;
75971;SDS011;64651;47.540;19.088;2023-03-13T09:45:05;15.97;;;8.10;;
75971;SDS011;64651;47.540;19.088;2023-03-13T09:50:30;13.60;;;7.53;;
75971;SDS011;64651;47.540;19.088;2023-03-13T09:55:36;14.52;;;8.60;;
75971;SDS011;64651;47.540;19.088;2023-03-13T10:00:39;16.43;;;8.33;;
75971;SDS011;64651;47.540;19.088;2023-03-13T10:05:48;14.38;;;8.40;;
75971;SDS011;64651;47.540;19.088;2023-03-13T10:16:08;16.83;;;7.97;;
75971;SDS011;64651;47.540;19.088;2023-03-13T10:21:19;14.02;;;7.40;;
75971;SDS011;64651;47.540;19.088;2023-03-13T10:26:26;14.10;;;7.60;;
75971;SDS011;64651;47.540;19.088;2023-03-13T10:31:32;16.60;;;7.62;;
75971;SDS011;64651;47.540;19.088;2023-03-13T10:36:47;14.53;;;6.90;;
75971;SDS011;64651;47.540;19.088;2023-03-13T10:41:55;14.13;;;7.80;;
75971;SDS011;64651;47.540;19.088;2023-03-13T10:47:13;16.20;;;7.43;;
75971;SDS011;64651;47.540;19.088;2023-03-13T10:57:53;14.70;;;7.18;;
75971;SDS011;64651;47.540;19.088;2023-03-13T11:03:04;13.40;;;7.80;;
75971;SDS011;64651;47.540;19.088;2023-03-13T11:08:24;15.82;;;7.72;;
75971;SDS011;64651;47.540;19.088;2023-03-13T11:13:36;16.20;;;8.07;;
75971;SDS011;64651;47.540;19.088;2023-03-13T11:24:19;14.30;;;7.90;;
75971;SDS011;64651;47.540;19.088;2023-03-13T11:29:58;18.40;;;8.40;;
75971;SDS011;64651;47.540;19.088;2023-03-13T11:41:30;15.88;;;8.23;;
75971;SDS011;64651;47.540;19.088;2023-03-13T12:02:55;14.77;;;8.18;;
75971;SDS011;64651;47.540;19.088;2023-03-13T12:08:02;13.40;;;8.35;;
75971;SDS011;64651;47.540;19.088;2023-03-13T12:13:12;13.87;;;8.07;;
75971;SDS011;64651;47.540;19.088;2023-03-13T12:18:24;12.68;;;7.35;;
75971;SDS011;64651;47.540;19.088;2023-03-13T12:28:42;13.20;;;7.47;;
75971;SDS011;64651;47.540;19.088;2023-03-13T12:33:53;14.73;;;7.50;;
75971;SDS011;64651;47.540;19.088;2023-03-13T12:39:47;12.37;;;8.20;;
75971;SDS011;64651;47.540;19.088;2023-03-13T12:44:48;12.37;;;7.68;;
75971;SDS011;64651;47.540;19.088;2023-03-13T12:55:49;13.48;;;7.35;;
75971;SDS011;64651;47.540;19.088;2023-03-13T13:01:09;13.43;;;6.90;;
75971;SDS011;64651;47.540;19.088;2023-03-13T13:06:20;13.03;;;7.13;;
75971;SDS011;64651;47.540;19.088;2023-03-13T13:16:40;15.50;;;7.10;;
75971;SDS011;64651;47.540;19.088;2023-03-13T13:21:44;14.40;;;6.07;;
75971;SDS011;64651;47.540;19.088;2023-03-13T13:26:47;12.63;;;5.80;;
75971;SDS011;64651;47.540;19.088;2023-03-13T13:36:53;13.65;;;5.50;;
75971;SDS011;64651;47.540;19.088;2023-03-13T13:41:55;14.03;;;5.63;;
75971;SDS011;64651;47.540;19.088;2023-03-13T13:46:58;9.48;;;4.75;;
75971;SDS011;64651;47.540;19.088;2023-03-13T13:57:09;12.53;;;3.63;;
75971;SDS011;64651;47.540;19.088;2023-03-13T14:02:15;8.90;;;4.15;;
75971;SDS011;64651;47.540;19.088;2023-03-13T14:07:26;9.57;;;4.10;;
75971;SDS011;64651;47.540;19.088;2023-03-13T14:12:35;10.75;;;3.92;;
75971;SDS011;64651;47.540;19.088;2023-03-13T14:22:50;10.23;;;3.70;;
75971;SDS011;64651;47.540;19.088;2023-03-13T14:27:54;10.27;;;3.78;;
75971;SDS011;64651;47.540;19.088;2023-03-13T14:32:57;11.40;;;3.30;;
75971;SDS011;64651;47.540;19.088;2023-03-13T14:38:02;9.52;;;3.03;;
75971;SDS011;64651;47.540;19.088;2023-03-13T14:43:04;8.85;;;2.67;;
75971;SDS011;64651;47.540;19.088;2023-03-13T14:48:33;9.90;;;2.67;;
75971;SDS011;64651;47.540;19.088;2023-03-13T14:53:35;8.25;;;2.70;;
75971;SDS011;64651;47.540;19.088;2023-03-13T14:58:37;8.30;;;2.77;;
75971;SDS011;64651;47.540;19.088;2023-03-13T15:03:43;8.98;;;2.80;;
75971;SDS011;64651;47.540;19.088;2023-03-13T15:09:06;8.93;;;2.60;;
75971;SDS011;64651;47.540;19.088;2023-03-13T15:19:44;9.25;;;2.25;;
75971;SDS011;64651;47.540;19.088;2023-03-13T15:24:49;7.90;;;2.60;;
75971;SDS011;64651;47.540;19.088;2023-03-13T15:30:06;10.02;;;2.75;;
75971;SDS011;64651;47.540;19.088;2023-03-13T15:35:29;6.40;;;2.30;;
75971;SDS011;64651;47.540;19.088;2023-03-13T15:40:32;8.97;;;2.47;;
75971;SDS011;64651;47.540;19.088;2023-03-13T15:45:38;8.80;;;2.50;;
75971;SDS011;64651;47.540;19.088;2023-03-13T15:50:42;9.07;;;2.00;;
75971;SDS011;64651;47.540;19.088;2023-03-13T15:55:46;7.37;;;2.30;;
75971;SDS011;64651;47.540;19.088;2023-03-13T16:00:50;7.20;;;2.10;;
75971;SDS011;64651;47.540;19.088;2023-03-13T16:05:52;7.07;;;2.00;;
75971;SDS011;64651;47.540;19.088;2023-03-13T16:10:56;6.28;;;2.12;;
75971;SDS011;64651;47.540;19.088;2023-03-13T16:15:58;8.20;;;2.00;;
75971;SDS011;64651;47.540;19.088;2023-03-13T16:21:00;7.70;;;1.87;;
75971;SDS011;64651;47.540;19.088;2023-03-13T16:26:02;6.43;;;2.08;;
75971;SDS011;64651;47.540;19.088;2023-03-13T16:31:07;6.13;;;2.20;;
75971;SDS011;64651;47.540;19.088;2023-03-13T16:36:23;9.25;;;2.00;;
75971;SDS011;64651;47.540;19.088;2023-03-13T16:41:28;6.40;;;2.40;;
75971;SDS011;64651;47.540;19.088;2023-03-13T16:46:36;7.50;;;1.90;;
75971;SDS011;64651;47.540;19.088;2023-03-13T16:51:41;6.62;;;2.30;;
75971;SDS011;64651;47.540;19.088;2023-03-13T16:56:43;7.90;;;2.77;;
75971;SDS011;64651;47.540;19.088;2023-03-13T17:01:45;6.47;;;2.45;;
75971;SDS011;64651;47.540;19.088;2023-03-13T17:06:48;7.03;;;2.50;;
75971;SDS011;64651;47.540;19.088;2023-03-13T17:11:50;7.70;;;2.35;;
75971;SDS011;64651;47.540;19.088;2023-03-13T17:22:29;7.80;;;2.10;;
75971;SDS011;64651;47.540;19.088;2023-03-13T17:27:32;7.93;;;2.20;;
75971;SDS011;64651;47.540;19.088;2023-03-13T17:32:35;8.00;;;2.50;;
75971;SDS011;64651;47.540;19.088;2023-03-13T17:37:42;10.48;;;2.35;;
75971;SDS011;64651;47.540;19.088;2023-03-13T17:42:45;7.82;;;2.60;;
75971;SDS011;64651;47.540;19.088;2023-03-13T17:47:47;10.23;;;3.07;;
75971;SDS011;64651;47.540;19.088;2023-03-13T17:52:56;10.65;;;3.20;;
75971;SDS011;64651;47.540;19.088;2023-03-13T17:57:58;7.80;;;2.63;;
75971;SDS011;64651;47.540;19.088;2023-03-13T18:03:01;9.27;;;3.03;;
75971;SDS011;64651;47.540;19.088;2023-03-13T18:08:17;9.77;;;2.80;;
75971;SDS011;64651;47.540;19.088;2023-03-13T18:13:19;9.47;;;2.80;;
75971;SDS011;64651;47.540;19.088;2023-03-13T18:18:21;8.10;;;2.37;;
75971;SDS011;64651;47.540;19.088;2023-03-13T18:23:24;6.97;;;2.40;;
75971;SDS011;64651;47.540;19.088;2023-03-13T18:28:26;7.45;;;2.70;;
75971;SDS011;64651;47.540;19.088;2023-03-13T18:33:28;9.52;;;2.78;;
75971;SDS011;64651;47.540;19.088;2023-03-13T18:38:30;8.60;;;2.70;;
75971;SDS011;64651;47.540;19.088;2023-03-13T18:43:33;9.48;;;2.83;;
75971;SDS011;64651;47.540;19.088;2023-03-13T18:48:35;8.73;;;2.80;;
75971;SDS011;64651;47.540;19.088;2023-03-13T18:53:37;12.15;;;3.50;;
75971;SDS011;64651;47.540;19.088;2023-03-13T18:58:40;9.32;;;3.80;;
75971;SDS011;64651;47.540;19.088;2023-03-13T19:03:42;11.45;;;4.03;;
75971;SDS011;64651;47.540;19.088;2023-03-13T19:08:45;11.48;;;4.60;;
75971;SDS011;64651;47.540;19.088;2023-03-13T19:13:48;10.77;;;4.40;;
75971;SDS011;64651;47.540;19.088;2023-03-13T19:18:51;13.23;;;3.90;;
75971;SDS011;64651;47.540;19.088;2023-03-13T19:23:53;12.48;;;3.80;;
75971;SDS011;64651;47.540;19.088;2023-03-13T19:28:57;9.88;;;3.60;;
75971;SDS011;64651;47.540;19.088;2023-03-13T19:34:00;10.35;;;3.60;;
75971;SDS011;64651;47.540;19.088;2023-03-13T19:39:03;10.00;;;3.87;;
75971;SDS011;64651;47.540;19.088;2023-03-13T19:44:11;10.20;;;3.70;;
75971;SDS011;64651;47.540;19.088;2023-03-13T19:49:14;10.32;;;3.47;;
75971;SDS011;64651;47.540;19.088;2023-03-13T19:54:20;12.23;;;4.10;;
75971;SDS011;64651;47.540;19.088;2023-03-13T19:59:24;13.95;;;5.37;;
75971;SDS011;64651;47.540;19.088;2023-03-13T20:04:32;14.10;;;5.50;;
75971;SDS011;64651;47.540;19.088;2023-03-13T20:09:35;12.70;;;5.82;;
75971;SDS011;64651;47.540;19.088;2023-03-13T20:14:37;13.90;;;5.57;;
75971;SDS011;64651;47.540;19.088;2023-03-13T20:19:40;12.95;;;5.35;;
75971;SDS011;64651;47.540;19.088;2023-03-13T20:24:42;14.10;;;5.95;;
75971;SDS011;64651;47.540;19.088;2023-03-13T20:29:44;13.93;;;5.97;;
75971;SDS011;64651;47.540;19.088;2023-03-13T20:34:46;15.15;;;6.28;;
75971;SDS011;64651;47.540;19.088;2023-03-13T20:39:48;14.55;;;6.22;;
75971;SDS011;64651;47.540;19.088;2023-03-13T20:44:50;13.68;;;6.18;;
75971;SDS011;64651;47.540;19.088;2023-03-13T20:49:53;13.38;;;5.80;;
75971;SDS011;64651;47.540;19.088;2023-03-13T20:54:55;16.20;;;5.47;;
75971;SDS011;64651;47.540;19.088;2023-03-13T20:59:57;13.40;;;5.75;;
75971;SDS011;64651;47.540;19.088;2023-03-13T21:04:59;12.20;;;5.45;;
75971;SDS011;64651;47.540;19.088;2023-03-13T21:10:01;14.57;;;5.72;;
75971;SDS011;64651;47.540;19.088;2023-03-13T21:15:05;12.37;;;5.87;;
75971;SDS011;64651;47.540;19.088;2023-03-13T21:20:09;15.63;;;6.13;;
75971;SDS011;64651;47.540;19.088;2023-03-13T21:25:13;15.60;;;5.72;;
75971;SDS011;64651;47.540;19.088;2023-03-13T21:30:16;13.27;;;5.70;;
75971;SDS011;64651;47.540;19.088;2023-03-13T21:35:20;13.65;;;6.20;;
75971;SDS011;64651;47.540;19.088;2023-03-13T21:40:22;15.95;;;6.90;;
75971;SDS011;64651;47.540;19.088;2023-03-13T21:45:25;18.33;;;8.30;;
75971;SDS011;64651;47.540;19.088;2023-03-13T21:50:27;21.77;;;9.10;;
75971;SDS011;64651;47.540;19.088;2023-03-13T21:55:29;17.95;;;7.93;;
75971;SDS011;64651;47.540;19.088;2023-03-13T22:00:36;16.15;;;7.37;;
75971;SDS011;64651;47.540;19.088;2023-03-13T22:05:42;17.05;;;7.28;;
75971;SDS011;64651;47.540;19.088;2023-03-13T22:10:49;17.63;;;8.07;;
75971;SDS011;64651;47.540;19.088;2023-03-13T22:15:53;23.98;;;10.13;;
75971;SDS011;64651;47.540;19.088;2023-03-13T22:20:56;19.98;;;7.45;;
75971;SDS011;64651;47.540;19.088;2023-03-13T22:25:59;13.20;;;5.53;;
75971;SDS011;64651;47.540;19.088;2023-03-13T22:31:02;14.25;;;5.90;;
75971;SDS011;64651;47.540;19.088;2023-03-13T22:36:06;14.87;;;6.20;;
75971;SDS011;64651;47.540;19.088;2023-03-13T22:41:10;12.73;;;5.28;;
75971;SDS011;64651;47.540;19.088;2023-03-13T22:46:13;13.50;;;5.82;;
75971;SDS011;64651;47.540;19.088;2023-03-13T22:51:16;14.27;;;5.62;;
75971;SDS011;64651;47.540;19.088;2023-03-13T22:56:18;11.88;;;5.18;;
75971;SDS011;64651;47.540;19.088;2023-03-13T23:01:20;15.30;;;5.33;;
75971;SDS011;64651;47.540;19.088;2023-03-13T23:06:24;13.32;;;6.03;;
75971;SDS011;64651;47.540;19.088;2023-03-13T23:11:26;13.93;;;5.40;;
75971;SDS011;64651;47.540;19.088;2023-03-13T23:16:29;14.18;;;5.55;;
75971;SDS011;64651;47.540;19.088;2023-03-13T23:21:31;14.43;;;6.28;;
75971;SDS011;64651;47.540;19.088;2023-03-13T23:26:33;13.57;;;5.80;;
75971;SDS011;64651;47.540;19.088;2023-03-13T23:31:36;14.82;;;5.95;;
75971;SDS011;64651;47.540;19.088;2023-03-13T23:36:38;13.52;;;6.15;;
75971;SDS011;64651;47.540;19.088;2023-03-13T23:41:43;15.15;;;5.78;;
75971;SDS011;64651;47.540;19.088;2023-03-13T23:46:45;14.18;;;5.80;;
75971;SDS011;64651;47.540;19.088;2023-03-13T23:51:47;13.40;;;5.83;;
75971;SDS011;64651;47.540;19.088;2023-03-13T23:56:49;14.85;;;5.95;;
